createdAt,value
2023-01-05T00:01:09.328Z,90.57
2023-01-05T00:03:36.800Z,90.88
2023-01-05T00:06:15.179Z,90.82
2023-01-05T00:08:42.454Z,91.48
2023-01-05T00:11:35.321Z,91.95
2023-01-05T00:14:20.982Z,92.13
2023-01-05T00:17:06.730Z,91.57
2023-01-05T00:19:52.415Z,91.66
2023-01-05T00:22:30.720Z,91.31
2023-01-05T00:25:02.257Z,91.29
2023-01-05T00:27:34.205Z,90.86
2023-01-05T00:30:01.234Z,91.03
2023-01-05T00:32:28.779Z,91.15
2023-01-05T00:34:56.615Z,91.26
2023-01-05T00:37:25.430Z,91.12
2023-01-05T00:39:52.399Z,91.32
2023-01-05T00:42:19.340Z,91.50
2023-01-05T00:44:46.456Z,91.37
2023-01-05T00:47:13.205Z,91.63
2023-01-05T00:49:40.406Z,91.32
2023-01-05T00:52:07.739Z,91.59
2023-01-05T00:54:34.703Z,91.55
2023-01-05T00:57:01.759Z,91.89
2023-01-05T00:59:28.487Z,92.02
2023-01-05T01:01:55.340Z,92.04
2023-01-05T01:04:22.478Z,91.92
2023-01-05T01:06:49.453Z,91.91
2023-01-05T01:09:16.590Z,91.84
2023-01-05T01:11:43.233Z,91.36
2023-01-05T01:14:12.021Z,92.07
2023-01-05T01:16:38.714Z,92.53
2023-01-05T01:19:05.771Z,92.32
2023-01-05T01:21:32.634Z,92.35
2023-01-05T01:23:59.276Z,93.01
2023-01-05T01:26:25.938Z,93.10
2023-01-05T01:28:52.511Z,93.27
2023-01-05T01:31:19.200Z,94.26
2023-01-05T01:33:45.848Z,93.47
2023-01-05T01:36:12.522Z,93.43
2023-01-05T01:38:39.228Z,94.02
2023-01-05T01:41:05.880Z,94.30
2023-01-05T01:43:58.272Z,93.90
2023-01-05T01:46:27.294Z,94.15
2023-01-05T01:49:01.241Z,94.77
2023-01-05T01:51:37.235Z,94.95
2023-01-05T01:54:09.089Z,94.73
2023-01-05T01:56:42.347Z,94.54
2023-01-05T01:59:09.776Z,94.86
2023-01-05T02:01:36.630Z,95.44
2023-01-05T02:04:05.304Z,95.68
2023-01-05T02:06:31.957Z,95.65
2023-01-05T02:08:58.736Z,95.73
2023-01-05T02:11:48.567Z,95.76
2023-01-05T02:14:50.375Z,95.35
2023-01-05T02:17:26.372Z,95.42
2023-01-05T02:20:11.450Z,95.51
2023-01-05T02:22:46.977Z,95.50
2023-01-05T02:25:32.406Z,94.92
2023-01-05T02:28:10.831Z,94.58
2023-01-05T02:31:01.935Z,95.38
2023-01-05T02:33:43.710Z,95.44
2023-01-05T02:36:34.652Z,95.87
2023-01-05T02:39:25.456Z,96.52
2023-01-05T02:41:59.666Z,96.35
2023-01-05T02:44:29.489Z,97.69
2023-01-05T02:47:26.104Z,99.41
2023-01-05T02:50:03.114Z,99.35
2023-01-05T02:52:55.221Z,99.33
2023-01-05T02:55:30.366Z,99.17
2023-01-05T02:58:04.184Z,99.04
2023-01-05T03:00:38.377Z,99.03
2023-01-05T03:03:23.892Z,98.99
2023-01-05T03:05:56.354Z,98.48
2023-01-05T03:08:32.411Z,98.20
2023-01-05T03:11:27.590Z,98.17
2023-01-05T03:14:16.035Z,98.35
2023-01-05T03:16:45.683Z,97.85
2023-01-05T03:19:33.598Z,98.18
2023-01-05T03:22:24.012Z,98.11
2023-01-05T03:25:09.955Z,98.30
2023-01-05T03:27:56.374Z,98.32
2023-01-05T03:30:51.656Z,98.68
2023-01-05T03:33:54.111Z,98.44
2023-01-05T03:36:24.485Z,98.88
2023-01-05T03:38:53.384Z,98.24
2023-01-05T03:41:23.390Z,98.12
2023-01-05T03:43:51.174Z,98.88
2023-01-05T03:46:20.850Z,98.94
2023-01-05T03:48:48.532Z,98.90
2023-01-05T03:51:16.522Z,98.67
2023-01-05T03:53:43.792Z,98.65
2023-01-05T03:56:10.470Z,98.77
2023-01-05T03:58:37.387Z,98.30
2023-01-05T04:01:04.778Z,98.42
2023-01-05T04:03:32.403Z,98.81
2023-01-05T04:05:59.959Z,98.87
2023-01-05T04:08:26.635Z,98.94
2023-01-05T04:10:54.141Z,99.24
2023-01-05T04:13:21.122Z,98.93
2023-01-05T04:15:47.878Z,98.97
2023-01-05T04:18:14.715Z,99.69
2023-01-05T04:20:42.788Z,99.45
2023-01-05T04:23:09.441Z,100.00
2023-01-05T04:25:36.084Z,100.00
2023-01-05T04:28:02.640Z,100.00
2023-01-05T04:30:29.246Z,100.00
2023-01-05T04:32:56.000Z,100.00
2023-01-05T04:35:22.697Z,99.83
2023-01-05T04:37:49.332Z,100.00
2023-01-05T04:40:16.052Z,100.00
2023-01-05T04:42:42.660Z,100.00
2023-01-05T04:45:10.518Z,100.00
2023-01-05T04:47:37.217Z,100.00
2023-01-05T04:50:04.330Z,100.00
2023-01-05T04:52:31.156Z,100.00
2023-01-05T04:54:57.786Z,100.00
2023-01-05T04:57:24.361Z,100.00
2023-01-05T04:59:50.962Z,100.00
2023-01-05T05:02:17.679Z,100.00
2023-01-05T05:04:44.432Z,100.00
2023-01-05T05:07:11.066Z,100.00
2023-01-05T05:09:37.777Z,100.00
2023-01-05T05:12:04.564Z,100.00
2023-01-05T05:14:31.386Z,100.00
2023-01-05T05:16:58.003Z,100.00
2023-01-05T05:19:24.688Z,100.00
2023-01-05T05:21:51.323Z,100.00
2023-01-05T05:24:18.092Z,100.00
2023-01-05T05:26:44.792Z,100.00
2023-01-05T05:29:11.430Z,100.00
2023-01-05T05:31:38.270Z,100.00
2023-01-05T05:34:04.911Z,100.00
2023-01-05T05:36:31.910Z,100.00
2023-01-05T05:38:58.854Z,100.00
2023-01-05T05:41:25.560Z,100.00
2023-01-05T05:43:52.230Z,100.00
2023-01-05T05:46:19.249Z,100.00
2023-01-05T05:48:45.891Z,100.00
2023-01-05T05:51:12.502Z,100.00
2023-01-05T05:53:39.084Z,100.00
2023-01-05T05:56:06.093Z,100.00
2023-01-05T05:58:32.686Z,100.00
2023-01-05T06:00:59.695Z,100.00
2023-01-05T06:03:26.546Z,100.00
2023-01-05T06:05:53.587Z,100.00
2023-01-05T06:08:21.058Z,100.00
2023-01-05T06:10:49.321Z,100.00
2023-01-05T06:13:16.758Z,100.00
2023-01-05T06:15:43.548Z,100.00
2023-01-05T06:18:11.365Z,100.00
2023-01-05T06:20:38.181Z,100.00
2023-01-05T06:23:04.875Z,100.00
2023-01-05T06:25:31.523Z,100.00
2023-01-05T06:27:58.205Z,100.00
2023-01-05T06:30:24.944Z,100.00
2023-01-05T06:32:51.589Z,100.00
2023-01-05T06:35:18.426Z,100.00
2023-01-05T06:37:45.004Z,100.00
2023-01-05T06:40:12.199Z,100.00
2023-01-05T06:42:39.092Z,100.00
2023-01-05T06:45:06.972Z,100.00
2023-01-05T06:47:33.825Z,100.00
2023-01-05T06:50:00.419Z,100.00
2023-01-05T06:52:27.081Z,100.00
2023-01-05T06:54:53.673Z,100.00
2023-01-05T06:57:20.377Z,100.00
2023-01-05T06:59:47.041Z,100.00
2023-01-05T07:02:15.175Z,100.00
2023-01-05T07:04:42.141Z,100.00
2023-01-05T07:07:12.908Z,98.94
2023-01-05T07:09:40.104Z,98.89
2023-01-05T07:12:06.817Z,98.24
2023-01-05T07:14:33.423Z,97.94
2023-01-05T07:17:00.413Z,98.94
2023-01-05T07:19:27.138Z,98.68
2023-01-05T07:21:56.976Z,98.88
2023-01-05T07:24:24.050Z,98.22
2023-01-05T07:26:50.997Z,97.57
2023-01-05T07:29:17.658Z,97.47
2023-01-05T07:31:44.360Z,97.71
2023-01-05T07:34:11.136Z,96.96
2023-01-05T07:36:37.764Z,96.97
2023-01-05T07:39:04.517Z,98.39
2023-01-05T07:41:31.130Z,97.15
2023-01-05T07:43:58.022Z,97.24
2023-01-05T07:46:24.741Z,96.22
2023-01-05T07:48:51.390Z,94.92
2023-01-05T07:51:18.300Z,93.84
2023-01-05T07:53:44.992Z,93.93
2023-01-05T07:56:12.981Z,93.91
2023-01-05T07:58:40.422Z,93.07
2023-01-05T08:01:13.922Z,92.34
2023-01-05T08:03:40.919Z,91.48
2023-01-05T08:06:12.918Z,89.59
2023-01-05T08:08:40.202Z,87.03
2023-01-05T08:11:08.577Z,86.77
2023-01-05T08:13:54.330Z,86.97
2023-01-05T08:16:21.138Z,86.86
2023-01-05T08:18:48.188Z,86.15
2023-01-05T08:21:14.822Z,85.56
2023-01-05T08:23:41.444Z,83.56
2023-01-05T08:26:12.431Z,83.14
2023-01-05T08:28:39.499Z,80.89
2023-01-05T08:31:10.355Z,78.62
2023-01-05T08:33:36.958Z,77.99
2023-01-05T08:36:09.225Z,77.26
2023-01-05T08:38:36.195Z,74.88
2023-01-05T08:41:02.835Z,73.81
2023-01-05T08:43:29.566Z,72.08
2023-01-05T08:45:56.454Z,71.54
2023-01-05T08:48:23.194Z,71.86
2023-01-05T08:50:49.894Z,73.18
2023-01-05T08:53:16.558Z,72.11
2023-01-05T08:55:43.169Z,72.01
2023-01-05T08:58:09.798Z,68.45
2023-01-05T09:00:36.532Z,67.36
2023-01-05T09:03:03.528Z,63.65
2023-01-05T09:05:30.256Z,60.85
2023-01-05T09:07:56.866Z,61.85
2023-01-05T09:10:23.471Z,62.00
2023-01-05T09:12:50.135Z,58.91
2023-01-05T09:15:16.849Z,60.08
2023-01-05T09:17:43.664Z,60.26
2023-01-05T09:20:10.866Z,61.11
2023-01-05T09:22:37.565Z,60.75
2023-01-05T09:25:04.854Z,61.00
2023-01-05T09:27:31.574Z,59.26
2023-01-05T09:29:58.215Z,56.86
2023-01-05T09:32:24.981Z,54.38
2023-01-05T09:34:51.617Z,52.11
2023-01-05T09:37:18.283Z,54.84
2023-01-05T09:39:44.989Z,54.06
2023-01-05T09:42:17.371Z,53.64
2023-01-05T09:44:58.363Z,54.35
2023-01-05T09:47:42.198Z,52.14
2023-01-05T09:50:20.275Z,56.38
2023-01-05T09:52:48.482Z,55.54
2023-01-05T09:55:19.630Z,55.58
2023-01-05T09:58:05.292Z,55.27
2023-01-05T10:00:33.325Z,57.18
2023-01-05T10:03:04.140Z,54.75
2023-01-05T10:05:41.858Z,52.89
2023-01-05T10:08:18.841Z,52.11
2023-01-05T10:11:13.238Z,50.32
2023-01-05T10:13:50.308Z,52.35
2023-01-05T10:16:17.822Z,52.00
2023-01-05T10:18:45.692Z,50.79
2023-01-05T10:21:30.907Z,50.79
2023-01-05T10:24:22.975Z,49.90
2023-01-05T10:27:24.268Z,48.82
2023-01-05T10:29:53.815Z,49.96
2023-01-05T10:32:49.229Z,50.67
2023-01-05T10:38:49.163Z,45.77
2023-01-05T10:41:44.281Z,45.52
2023-01-05T10:44:22.893Z,44.91
2023-01-05T10:46:52.567Z,48.64
2023-01-05T10:49:31.271Z,48.60
2023-01-05T10:51:59.905Z,47.58
2023-01-05T10:54:49.151Z,50.08
2023-01-05T10:57:36.512Z,49.56
2023-01-05T11:00:06.801Z,50.90
2023-01-05T11:02:36.701Z,49.42
2023-01-05T11:05:16.468Z,46.54
2023-01-05T11:07:53.346Z,48.05
2023-01-05T11:10:31.269Z,47.12
2023-01-05T11:13:33.323Z,46.94
2023-01-05T11:16:02.413Z,48.91
2023-01-05T11:19:12.693Z,49.19
2023-01-05T11:21:41.622Z,51.06
2023-01-05T11:24:33.514Z,49.12
2023-01-05T11:27:25.078Z,46.86
2023-01-05T11:30:14.686Z,46.98
2023-01-05T11:32:43.057Z,45.69
2023-01-05T11:35:32.837Z,47.49
2023-01-05T11:38:00.541Z,48.46
2023-01-05T11:40:31.220Z,46.95
2023-01-05T11:42:59.867Z,45.41
2023-01-05T11:45:38.034Z,43.23
2023-01-05T11:48:08.885Z,42.61
2023-01-05T11:50:53.416Z,43.04
2023-01-05T11:53:46.182Z,43.04
2023-01-05T11:56:21.383Z,43.97
2023-01-05T11:58:50.049Z,44.77
2023-01-05T12:01:42.080Z,46.98
2023-01-05T12:04:24.049Z,46.34
2023-01-05T12:07:17.686Z,46.35
2023-01-05T12:09:58.700Z,48.79
2023-01-05T12:12:39.290Z,48.31
2023-01-05T12:15:11.591Z,45.37
2023-01-05T12:17:59.883Z,43.22
2023-01-05T12:20:52.888Z,43.19
2023-01-05T12:23:37.719Z,44.56
2023-01-05T12:26:13.533Z,41.55
2023-01-05T12:35:05.295Z,42.78
2023-01-05T12:37:58.551Z,41.57
2023-01-05T12:40:53.157Z,40.75
2023-01-05T12:43:47.124Z,41.68
2023-01-05T12:46:31.897Z,41.72
2023-01-05T12:49:02.802Z,42.42
2023-01-05T12:51:42.829Z,42.12
2023-01-05T12:54:31.495Z,44.30
2023-01-05T12:57:05.318Z,43.68
2023-01-05T12:59:52.850Z,43.06
2023-01-05T13:02:26.596Z,41.76
2023-01-05T13:05:02.628Z,40.59
2023-01-05T13:07:50.348Z,38.98
2023-01-05T13:10:33.575Z,39.55
2023-01-05T13:13:06.506Z,40.87
2023-01-05T13:15:41.635Z,45.01
2023-01-05T13:18:18.560Z,47.49
2023-01-05T13:20:55.694Z,46.71
2023-01-05T13:23:30.065Z,45.14
2023-01-05T13:26:01.547Z,44.39
2023-01-05T13:28:30.816Z,44.45
2023-01-05T13:31:29.663Z,44.15
2023-01-05T13:33:58.978Z,44.98
2023-01-05T13:36:37.647Z,47.14
2023-01-05T13:39:20.051Z,47.47
2023-01-05T13:42:25.560Z,49.90
2023-01-05T13:45:14.572Z,51.99
2023-01-05T13:47:47.436Z,53.39
2023-01-05T13:50:31.132Z,56.42
2023-01-05T13:53:15.993Z,57.81
2023-01-05T13:56:05.130Z,60.80
2023-01-05T13:58:40.653Z,60.42
2023-01-05T14:01:34.383Z,62.25
2023-01-05T14:04:01.500Z,62.10
2023-01-05T14:06:31.678Z,62.02
2023-01-05T14:09:00.759Z,62.29
2023-01-05T14:11:28.655Z,62.66
2023-01-05T14:13:59.676Z,62.97
2023-01-05T14:16:35.676Z,64.32
2023-01-05T14:19:13.562Z,64.83
2023-01-05T14:21:49.401Z,64.85
2023-01-05T14:24:47.822Z,65.22
2023-01-05T14:27:16.129Z,66.46
2023-01-05T14:29:48.234Z,66.69
2023-01-05T14:32:19.661Z,66.71
2023-01-05T14:34:49.273Z,66.68
2023-01-05T14:37:27.459Z,66.96
2023-01-05T14:40:00.425Z,67.47
2023-01-05T14:42:39.797Z,68.05
2023-01-05T14:45:12.263Z,69.20
2023-01-05T14:47:43.993Z,69.07
2023-01-05T14:50:33.653Z,70.49
2023-01-05T14:53:03.379Z,70.86
2023-01-05T14:55:38.765Z,71.15
2023-01-05T14:58:38.043Z,72.37
2023-01-05T15:01:21.151Z,72.78
2023-01-05T15:04:06.195Z,73.00
2023-01-05T15:06:50.866Z,73.50
2023-01-05T15:09:41.455Z,73.77
2023-01-05T15:12:17.142Z,74.36
2023-01-05T15:15:04.068Z,74.72
2023-01-05T15:17:48.160Z,75.06
2023-01-05T15:20:38.645Z,75.67
2023-01-05T15:23:23.971Z,76.17
2023-01-05T15:26:12.331Z,76.71
2023-01-05T15:28:39.523Z,77.60
2023-01-05T15:31:30.419Z,77.86
2023-01-05T15:34:17.728Z,78.29
2023-01-05T15:36:53.291Z,78.42
2023-01-05T15:39:31.105Z,78.95
2023-01-05T15:42:01.922Z,79.69
2023-01-05T15:44:34.185Z,79.82
2023-01-05T15:47:02.380Z,79.83
2023-01-05T15:49:32.589Z,80.43
2023-01-05T15:51:59.492Z,81.14
2023-01-05T15:54:31.672Z,82.22
2023-01-05T15:57:00.784Z,82.60
2023-01-05T15:59:30.398Z,83.17
2023-01-05T16:01:57.541Z,83.96
2023-01-05T16:04:24.693Z,84.00
2023-01-05T16:07:05.400Z,83.46
2023-01-05T16:09:38.654Z,83.28
2023-01-05T16:12:23.343Z,83.82
2023-01-05T16:15:01.350Z,84.85
2023-01-05T16:17:31.663Z,84.35
2023-01-05T16:20:03.467Z,84.94
2023-01-05T16:22:45.687Z,85.05
2023-01-05T16:25:15.283Z,85.26
2023-01-05T16:27:44.756Z,85.55
2023-01-05T16:30:14.676Z,86.04
2023-01-05T16:32:42.618Z,86.39
2023-01-05T16:35:39.840Z,86.49
2023-01-05T16:38:13.008Z,86.45
2023-01-05T16:40:49.647Z,87.09
2023-01-05T16:43:32.590Z,86.71
2023-01-05T16:46:20.974Z,86.72
2023-01-05T16:48:51.412Z,86.78
2023-01-05T16:51:20.916Z,86.67
2023-01-05T16:53:57.126Z,86.85
2023-01-05T16:56:32.999Z,87.16
2023-01-05T16:59:01.064Z,87.01
2023-01-05T17:01:35.978Z,87.85
2023-01-05T17:04:16.640Z,88.47
2023-01-05T17:06:49.548Z,88.37
2023-01-05T17:09:25.862Z,88.57
2023-01-05T17:11:53.218Z,88.15
2023-01-05T17:14:21.674Z,89.17
2023-01-05T17:16:48.586Z,89.42
2023-01-05T17:19:17.823Z,89.38
2023-01-05T17:21:50.744Z,89.45
2023-01-05T17:24:17.476Z,89.62
2023-01-05T17:26:45.432Z,89.60
2023-01-05T17:29:32.586Z,90.72
2023-01-05T17:31:59.390Z,90.31
2023-01-05T17:34:26.329Z,90.54
2023-01-05T17:36:55.991Z,89.99
2023-01-05T17:39:23.022Z,90.13
2023-01-05T17:41:49.807Z,89.87
2023-01-05T17:44:17.244Z,89.02
2023-01-05T17:46:45.818Z,89.27
2023-01-05T17:49:17.597Z,90.74
2023-01-05T17:51:44.349Z,91.06
2023-01-05T17:54:12.096Z,91.11
2023-01-05T17:56:39.076Z,90.80
2023-01-05T17:59:06.479Z,90.37
2023-01-05T18:01:36.555Z,90.69
2023-01-05T18:04:03.310Z,90.72
2023-01-05T18:06:30.167Z,90.17
2023-01-05T18:08:57.308Z,89.94
2023-01-05T18:11:23.960Z,90.24
2023-01-05T18:13:50.516Z,90.47
2023-01-05T18:16:17.185Z,90.63
2023-01-05T18:18:43.969Z,90.36
2023-01-05T18:21:10.611Z,90.23
2023-01-05T18:23:37.248Z,90.60
2023-01-05T18:26:08.407Z,91.02
2023-01-05T18:28:35.964Z,91.24
2023-01-05T18:31:12.905Z,91.92
2023-01-05T18:33:39.603Z,91.90
2023-01-05T18:36:13.713Z,92.22
2023-01-05T18:38:41.565Z,91.65
2023-01-05T18:41:08.565Z,91.32
2023-01-05T18:43:35.598Z,91.49
2023-01-05T18:46:02.814Z,90.40
2023-01-05T18:48:30.026Z,90.99
2023-01-05T18:50:58.599Z,90.17
2023-01-05T18:53:25.532Z,90.02
2023-01-05T18:55:52.389Z,89.58
2023-01-05T18:58:19.066Z,89.88
2023-01-05T19:00:46.664Z,89.90
2023-01-05T19:03:13.835Z,90.33
2023-01-05T19:05:42.708Z,90.67
2023-01-05T19:08:11.165Z,91.11
2023-01-05T19:10:38.318Z,90.86
2023-01-05T19:13:05.279Z,91.27
2023-01-05T19:15:36.655Z,91.14
2023-01-05T19:18:03.609Z,91.53
2023-01-05T19:20:31.810Z,91.71
2023-01-05T19:23:00.030Z,91.80
2023-01-05T19:25:26.697Z,91.39
2023-01-05T19:27:53.414Z,91.87
2023-01-05T19:30:22.121Z,91.67
2023-01-05T19:32:48.876Z,92.16
2023-01-05T19:35:15.855Z,92.06
2023-01-05T19:37:42.579Z,92.36
2023-01-05T19:40:10.559Z,91.50
2023-01-05T19:42:37.426Z,91.82
2023-01-05T19:45:04.374Z,92.36
2023-01-05T19:47:31.117Z,91.68
2023-01-05T19:49:57.736Z,91.87
2023-01-05T19:52:29.672Z,91.84
2023-01-05T19:54:56.622Z,91.59
2023-01-05T19:57:23.730Z,90.58
2023-01-05T19:59:51.427Z,91.23
2023-01-05T20:02:18.335Z,90.69
2023-01-05T20:04:46.703Z,91.31
2023-01-05T20:07:13.787Z,90.81
2023-01-05T20:09:41.152Z,90.61
2023-01-05T20:12:14.709Z,90.86
2023-01-05T20:14:42.268Z,90.85
2023-01-05T20:17:10.538Z,90.72
2023-01-05T20:19:38.762Z,90.93
2023-01-05T20:22:07.597Z,91.36
2023-01-05T20:24:36.885Z,91.27
2023-01-05T20:27:06.836Z,91.16
2023-01-05T20:29:33.872Z,91.90
2023-01-05T20:32:12.627Z,91.80
2023-01-05T20:34:40.495Z,91.59
2023-01-05T20:37:09.482Z,92.06
2023-01-05T20:39:37.729Z,91.96
2023-01-05T20:42:08.079Z,92.03
2023-01-05T20:44:37.452Z,92.36
2023-01-05T20:47:05.823Z,92.40
2023-01-05T20:49:34.921Z,92.58
2023-01-05T20:52:01.659Z,93.06
2023-01-05T20:54:28.417Z,92.77
2023-01-05T20:56:55.158Z,93.14
2023-01-05T20:59:24.895Z,92.86
2023-01-05T21:01:52.195Z,92.72
2023-01-05T21:04:20.285Z,93.05
2023-01-05T21:06:47.904Z,93.31
2023-01-05T21:09:14.933Z,93.36
2023-01-05T21:11:41.868Z,93.31
2023-01-05T21:14:11.343Z,93.00
2023-01-05T21:16:49.298Z,92.79
2023-01-05T21:19:21.859Z,92.72
2023-01-05T21:21:50.903Z,92.52
2023-01-05T21:24:17.672Z,92.18
2023-01-05T21:26:44.821Z,92.57
2023-01-05T21:29:16.195Z,92.93
2023-01-05T21:31:43.550Z,93.32
2023-01-05T21:34:11.860Z,93.63
2023-01-05T21:36:41.677Z,93.46
2023-01-05T21:39:09.417Z,94.65
2023-01-05T21:41:55.679Z,94.60
2023-01-05T21:44:22.823Z,94.54
2023-01-05T21:46:50.279Z,94.46
2023-01-05T21:49:17.794Z,94.23
2023-01-05T21:52:03.448Z,94.16
2023-01-05T21:54:49.133Z,94.09
2023-01-05T21:57:15.915Z,94.09
2023-01-05T21:59:43.428Z,93.74
2023-01-05T22:02:11.169Z,93.28
2023-01-05T22:04:37.804Z,93.55
2023-01-05T22:07:07.279Z,93.20
2023-01-05T22:09:37.451Z,92.96
2023-01-05T22:12:09.075Z,90.85
2023-01-05T22:14:37.199Z,89.91
2023-01-05T22:17:05.641Z,88.83
2023-01-05T22:19:32.359Z,87.80
2023-01-05T22:21:59.025Z,87.84
2023-01-05T22:24:25.767Z,88.13
2023-01-05T22:26:52.436Z,87.92
2023-01-05T22:29:19.439Z,87.94
2023-01-05T22:31:46.338Z,88.51
2023-01-05T22:34:13.116Z,88.09
2023-01-05T22:36:40.014Z,88.19
2023-01-05T22:39:06.696Z,88.33
2023-01-05T22:41:33.290Z,88.16
2023-01-05T22:44:02.283Z,87.80
2023-01-05T22:46:30.404Z,88.16
2023-01-05T22:48:57.958Z,87.29
2023-01-05T22:51:30.404Z,86.86
2023-01-05T22:53:58.256Z,86.95
2023-01-05T22:56:26.685Z,87.17
2023-01-05T22:58:55.367Z,87.44
2023-01-05T23:01:24.298Z,86.54
2023-01-05T23:03:52.389Z,86.57
2023-01-05T23:06:20.272Z,86.54
2023-01-05T23:08:48.848Z,85.94
2023-01-05T23:11:19.384Z,84.62
2023-01-05T23:13:47.079Z,84.23
2023-01-05T23:16:13.955Z,82.17
2023-01-05T23:18:41.156Z,79.08
2023-01-05T23:21:10.967Z,73.76
2023-01-05T23:23:40.619Z,70.09
2023-01-05T23:26:08.752Z,68.32
2023-01-05T23:28:36.182Z,65.84
2023-01-05T23:31:03.789Z,64.96
2023-01-05T23:33:33.282Z,64.52
2023-01-05T23:36:00.285Z,63.44
2023-01-05T23:38:27.475Z,64.21
2023-01-05T23:40:55.941Z,62.96
2023-01-05T23:43:25.168Z,62.04
2023-01-05T23:45:58.436Z,60.79
2023-01-05T23:48:25.074Z,61.18
2023-01-05T23:50:54.270Z,60.20
2023-01-05T23:53:20.983Z,59.79
2023-01-05T23:55:47.609Z,59.32
2023-01-05T23:58:14.244Z,59.11
